Birnamwood, Wisconsin
Current Conditions -  °F | °C
As of 5:55 PM on Sunday 21 Dec 2014 (Local Time) from KAIG Reporting Station
Haze Haze  
Wind Chill: 22°   Ceiling: 300
Heat Index: 31°   Visibility: 1.5mi
Dew Point: 31°   Wind: 10mph
Humidity: 100%   Direction: 160°SSE
Pressure: 29.91"   Gusts: NA
Location:  44.93°N, 89.21°W
Report Text: KAIG 212355Z AUTO 16009KT 1 1/2SM BR OVC003 00/00 A2991 RMK AO2 T10051005 11005 21017
Loading
Personal Weather Stations






























Interactive Weather Map New forecast layout! Learn more

10-Day Weather Forecast

Advertisements
Track Severe Weather on mobile